Terminal Aerodrome Forecast
Issued by NWS

Home | Current Version | Previous Version | Text Only | Print | Product List | Glossary On
Versions: 1 2 3 4 5 6 7 8 9 10 11 12 13 14 15 16 17 18 19 20 21 22 23 24 25 26 27 28
000
FTUS42 KJAX 271428 AAA
TAFVQQ
TAF AMD
KVQQ 271428Z 2714/2812 36010KT P6SM SCT025 OVC150
     FM271700 03010G16KT P6SM SCT030 BKN150
     FM280000 02007KT P6SM SCT035 BKN250
     FM280600 02010KT P6SM SCT015 BKN030 OVC250=

USA.gov is the U.S. government's official web portal to all federal, state and local government web resources and services.